Time;durP1;ratioP1;P1;durP2;ratioP2;P2;SDS_P1;SDS_P2;PMS_P1;PMS_P2;Temp;Humidity;BMP_temperature;BMP_pressure;BME280_temperature;BME280_humidity;BME280_pressure;Samples;Min_cycle;Max_cycle;Signal;HPM_P1;HPM_P2
2023/01/12 00:02:08;;;;;;;19.10;18.40;;;20.90;62.40;;;;;;5031442;28;20523;-56
2023/01/12 00:04:35;;;;;;;19.00;18.30;;;20.90;62.40;;;;;;5031648;28;20526;-56
2023/01/12 00:07:03;;;;;;;18.77;18.13;;;20.90;62.40;;;;;;5030826;28;20481;-57
2023/01/12 00:09:29;;;;;;;19.20;18.30;;;20.80;62.30;;;;;;5030990;28;20536;-56
2023/01/12 00:11:58;;;;;;;19.10;18.40;;;20.80;62.20;;;;;;5031504;28;20464;-56
2023/01/12 00:14:25;;;;;;;19.23;18.47;;;20.90;62.30;;;;;;5031198;28;20457;-57
2023/01/12 00:16:52;;;;;;;20.27;19.43;;;20.80;62.20;;;;;;5031073;28;20556;-60
2023/01/12 00:19:20;;;;;;;19.03;18.43;;;20.80;62.30;;;;;;5031215;28;20449;-58
2023/01/12 00:21:58;;;;;;;19.00;18.20;;;20.80;62.30;;;;;;5031305;28;20541;-55
2023/01/12 00:24:27;;;;;;;18.73;18.03;;;20.80;62.40;;;;;;5011539;28;20532;-55
2023/01/12 00:26:55;;;;;;;18.53;17.83;;;20.80;62.50;;;;;;5011455;28;20572;-58
2023/01/12 00:29:24;;;;;;;18.67;18.07;;;20.80;62.60;;;;;;5011327;28;20456;-56
2023/01/12 00:31:53;;;;;;;20.10;19.20;;;20.80;62.60;;;;;;5015053;28;20452;-58
2023/01/12 00:34:20;;;;;;;19.70;19.00;;;20.80;62.70;;;;;;5034338;28;20989;-56
2023/01/12 00:36:47;;;;;;;19.60;18.53;;;20.80;62.70;;;;;;5034960;28;21012;-58
2023/01/12 00:39:15;;;;;;;18.50;17.90;;;20.80;62.80;;;;;;5034717;28;20448;-57
2023/01/12 00:47:14;;;;;;;18.60;17.90;;;20.80;62.70;;;;;;5034923;28;20584;-59
2023/01/12 00:49:42;;;;;;;18.60;17.90;;;20.80;62.80;;;;;;5034508;28;21038;-59
2023/01/12 00:52:12;;;;;;;19.00;18.30;;;20.80;62.80;;;;;;5034364;28;21012;-57
2023/01/12 00:54:39;;;;;;;19.50;18.80;;;20.80;62.80;;;;;;5034747;28;20469;-59
2023/01/12 00:57:08;;;;;;;19.00;18.17;;;20.80;62.80;;;;;;5034573;28;20440;-57
2023/01/12 00:59:36;;;;;;;18.60;17.90;;;20.70;62.70;;;;;;5034407;28;20460;-59
2023/01/12 01:02:04;;;;;;;18.60;17.90;;;20.80;62.90;;;;;;5034536;28;20532;-54
2023/01/12 01:04:33;;;;;;;18.60;18.00;;;20.70;62.80;;;;;;5034052;28;20465;-55
2023/01/12 01:07:00;;;;;;;18.73;18.13;;;20.70;62.70;;;;;;5034375;28;20506;-54
2023/01/12 01:09:27;;;;;;;19.13;18.43;;;20.70;62.70;;;;;;5034173;28;20448;-58
2023/01/12 01:11:54;;;;;;;19.50;18.80;;;20.70;62.60;;;;;;5034293;28;20452;-57
2023/01/12 01:14:22;;;;;;;19.30;18.60;;;20.70;62.60;;;;;;5033822;28;20473;-57
2023/01/12 01:16:50;;;;;;;19.63;18.93;;;20.70;62.70;;;;;;5034170;28;20468;-52
2023/01/12 01:19:17;;;;;;;19.00;18.40;;;20.70;62.70;;;;;;5034063;28;20456;-50
2023/01/12 01:21:44;;;;;;;19.03;18.33;;;20.70;62.60;;;;;;5033698;28;20449;-54
2023/01/12 01:24:12;;;;;;;19.10;18.40;;;20.70;62.60;;;;;;5033907;28;20986;-53
2023/01/12 01:26:39;;;;;;;19.57;18.77;;;20.70;62.60;;;;;;5034019;28;20485;-54
2023/01/12 01:29:07;;;;;;;19.53;18.50;;;20.70;62.60;;;;;;5033955;28;20819;-54
2023/01/12 01:31:35;;;;;;;19.33;18.60;;;20.70;62.60;;;;;;5033641;28;20445;-58
2023/01/12 01:34:03;;;;;;;19.80;18.97;;;20.70;62.60;;;;;;5034004;28;20476;-57
2023/01/12 01:36:30;;;;;;;19.50;18.60;;;20.70;62.60;;;;;;5033764;28;20456;-58
2023/01/12 01:38:57;;;;;;;19.80;19.00;;;20.70;62.60;;;;;;5033654;28;20453;-58
2023/01/12 01:41:27;;;;;;;19.73;18.83;;;20.70;62.60;;;;;;5032578;28;20453;-55
2023/01/12 01:43:57;;;;;;;19.37;18.50;;;20.70;62.60;;;;;;5033434;28;20527;-54
2023/01/12 01:46:36;;;;;;;19.10;18.40;;;20.70;62.60;;;;;;5033675;28;20522;-52
2023/01/12 01:49:21;;;;;;;18.73;18.13;;;20.70;62.60;;;;;;5033529;28;20480;-59
2023/01/12 01:51:48;;;;;;;19.57;18.87;;;20.60;62.60;;;;;;5033553;28;20814;-56
2023/01/12 01:54:15;;;;;;;19.37;18.67;;;20.60;62.70;;;;;;5033565;28;20516;-55
2023/01/12 01:56:43;;;;;;;19.20;18.50;;;20.60;62.80;;;;;;5033399;28;20457;-59
2023/01/12 01:59:15;;;;;;;20.57;19.77;;;20.70;62.90;;;;;;5033280;28;20449;-55
2023/01/12 02:01:42;;;;;;;19.70;18.90;;;20.70;62.90;;;;;;5032450;28;20540;-55
2023/01/12 02:04:11;;;;;;;19.30;18.60;;;20.70;63.10;;;;;;5033242;28;20470;-56
2023/01/12 02:06:38;;;;;;;20.67;19.77;;;20.60;62.80;;;;;;5033232;28;20460;-57
2023/01/12 02:09:11;;;;;;;19.73;19.03;;;20.60;62.80;;;;;;5033092;28;20943;-57
2023/01/12 02:17:26;;;;;;;20.33;19.60;;;20.60;62.80;;;;;;5032935;28;20856;-57
2023/01/12 02:20:34;;;;;;;20.40;19.70;;;20.60;62.70;;;;;;5032896;28;20452;-56
2023/01/12 02:23:42;;;;;;;19.83;19.13;;;20.60;62.80;;;;;;5011461;28;20437;-60
2023/01/12 02:26:41;;;;;;;19.70;18.93;;;20.60;62.80;;;;;;5033036;28;20552;-58
2023/01/12 02:29:54;;;;;;;19.57;18.87;;;20.60;62.80;;;;;;5032660;28;20444;-59
2023/01/12 02:32:28;;;;;;;20.00;19.30;;;20.60;62.90;;;;;;5032509;28;20454;-56
2023/01/12 02:35:05;;;;;;;19.73;19.03;;;20.60;63.00;;;;;;5032873;28;20560;-53
2023/01/12 02:37:36;;;;;;;20.83;20.03;;;20.60;63.10;;;;;;5032810;28;20481;-58
2023/01/12 02:40:07;;;;;;;20.30;19.43;;;20.60;63.10;;;;;;5032550;28;20465;-59
2023/01/12 02:42:43;;;;;;;21.13;20.33;;;20.60;63.00;;;;;;5032306;28;20459;-56
2023/01/12 02:45:23;;;;;;;20.30;19.60;;;20.60;62.90;;;;;;5032702;28;20461;-59
2023/01/12 02:47:57;;;;;;;20.67;19.93;;;20.60;62.90;;;;;;5032526;28;20487;-57
2023/01/12 02:50:30;;;;;;;22.20;21.40;;;20.60;62.80;;;;;;5032483;28;20541;-55
2023/01/12 02:53:04;;;;;;;19.23;18.53;;;20.60;62.80;;;;;;5032229;28;20503;-57
2023/01/12 02:55:33;;;;;;;18.30;17.70;;;20.60;62.80;;;;;;5032534;28;20508;-58
2023/01/12 02:58:00;;;;;;;18.33;17.73;;;20.60;62.70;;;;;;5032410;28;20857;-53
2023/01/12 03:00:29;;;;;;;18.77;18.07;;;20.60;62.60;;;;;;5032048;28;20540;-56
2023/01/12 03:02:58;;;;;;;19.07;18.40;;;20.50;62.40;;;;;;5031752;28;20445;-56
2023/01/12 03:05:24;;;;;;;19.27;18.50;;;20.50;62.50;;;;;;5032160;28;20997;-59
2023/01/12 03:07:53;;;;;;;18.80;18.10;;;20.50;62.50;;;;;;5032075;28;20587;-56
2023/01/12 03:10:55;;;;;;;19.07;18.37;;;20.50;62.50;;;;;;5032025;28;20882;-56
2023/01/12 03:13:27;;;;;;;19.10;18.30;;;20.60;62.60;;;;;;5017684;28;20468;-56
2023/01/12 03:15:56;;;;;;;19.10;18.40;;;20.50;62.50;;;;;;5032244;28;20812;-58
2023/01/12 03:18:30;;;;;;;19.20;18.50;;;20.50;62.60;;;;;;5032131;28;20441;-54
2023/01/12 03:21:02;;;;;;;19.20;18.40;;;20.50;62.60;;;;;;5031531;28;20468;-57
2023/01/12 03:23:34;;;;;;;18.90;18.20;;;20.50;62.60;;;;;;5031638;28;20476;-54
2023/01/12 03:26:03;;;;;;;19.10;18.40;;;20.50;62.60;;;;;;5031995;28;20477;-55
2023/01/12 03:28:34;;;;;;;18.93;18.03;;;20.50;62.60;;;;;;5031801;28;20568;-52
2023/01/12 03:31:07;;;;;;;19.37;18.57;;;20.50;62.60;;;;;;5031523;28;20535;-54
2023/01/12 03:33:36;;;;;;;18.90;18.10;;;20.50;62.60;;;;;;5031963;28;21032;-57
2023/01/12 03:36:13;;;;;;;19.00;18.30;;;20.50;62.60;;;;;;5031785;28;20935;-58
2023/01/12 03:38:49;;;;;;;18.80;18.10;;;20.50;62.60;;;;;;5032114;28;20528;-54
2023/01/12 03:41:23;;;;;;;19.13;18.43;;;20.50;62.60;;;;;;5031628;28;20870;-55
2023/01/12 03:43:52;;;;;;;19.83;18.83;;;20.50;62.60;;;;;;5031726;28;20467;-56
2023/01/12 03:46:26;;;;;;;19.13;18.33;;;20.50;62.60;;;;;;5031739;28;20449;-57
2023/01/12 03:48:58;;;;;;;18.87;18.17;;;20.50;62.70;;;;;;5031484;28;20893;-56
2023/01/12 03:51:29;;;;;;;19.50;18.80;;;20.50;62.70;;;;;;5031397;28;20449;-57
2023/01/12 03:53:58;;;;;;;19.07;18.27;;;20.50;62.70;;;;;;5031683;28;20882;-59
2023/01/12 03:56:29;;;;;;;19.27;18.60;;;20.50;62.70;;;;;;5031699;28;20487;-55
2023/01/12 03:58:57;;;;;;;18.70;18.10;;;20.50;62.60;;;;;;5031534;28;20933;-58
2023/01/12 04:01:24;;;;;;;19.70;18.90;;;20.50;62.60;;;;;;5031349;28;20532;-56
2023/01/12 04:03:51;;;;;;;19.33;18.63;;;20.50;62.70;;;;;;5031592;28;20547;-55
2023/01/12 04:06:19;;;;;;;19.07;18.37;;;20.50;62.60;;;;;;5034382;28;20444;-57
2023/01/12 04:08:46;;;;;;;18.60;18.00;;;20.50;62.60;;;;;;5035182;28;20480;-60
2023/01/12 04:13:58;;;;;;;18.60;17.90;;;20.50;62.60;;;;;;5035493;28;20452;-55
2023/01/12 04:16:25;;;;;;;19.47;18.67;;;20.50;62.60;;;;;;5035408;28;20472;-58
2023/01/12 04:18:52;;;;;;;19.00;18.30;;;20.50;62.70;;;;;;5035351;28;20508;-56
2023/01/12 04:24:04;;;;;;;19.50;18.70;;;20.50;63.00;;;;;;5035117;28;20467;-56
2023/01/12 04:26:31;;;;;;;19.20;18.50;;;20.60;63.20;;;;;;5035174;28;20447;-52
2023/01/12 04:28:58;;;;;;;19.60;18.90;;;20.60;63.30;;;;;;5034989;28;20625;-56
2023/01/12 04:31:25;;;;;;;19.13;18.43;;;20.60;63.30;;;;;;5034876;28;20532;-58
2023/01/12 04:33:52;;;;;;;19.60;18.90;;;20.60;63.30;;;;;;5035000;28;20476;-58
2023/01/12 04:36:20;;;;;;;19.63;18.83;;;20.60;63.30;;;;;;5035022;28;20886;-58
2023/01/12 04:38:48;;;;;;;19.20;18.50;;;20.60;63.30;;;;;;5034645;28;20445;-54
2023/01/12 04:41:15;;;;;;;19.23;18.53;;;20.70;63.40;;;;;;5034762;28;20453;-56
2023/01/12 04:43:42;;;;;;;19.27;18.57;;;20.60;63.20;;;;;;5034776;28;20469;-57
2023/01/12 04:46:10;;;;;;;19.40;18.70;;;20.70;63.40;;;;;;5035014;28;20456;-57
2023/01/12 04:48:38;;;;;;;19.87;19.07;;;20.70;63.40;;;;;;5034617;28;20560;-57
2023/01/12 04:51:06;;;;;;;19.97;19.17;;;20.70;63.50;;;;;;5034806;28;20814;-57
2023/01/12 04:53:34;;;;;;;19.60;18.80;;;20.70;63.50;;;;;;5035048;28;20468;-58
2023/01/12 04:56:04;;;;;;;19.30;18.60;;;20.60;63.30;;;;;;5034702;28;20535;-57
2023/01/12 04:58:32;;;;;;;20.40;19.60;;;20.70;63.40;;;;;;5034823;28;20530;-54
2023/01/12 05:01:07;;;;;;;19.97;19.23;;;20.70;63.40;;;;;;5034437;28;20452;-53
2023/01/12 05:03:34;;;;;;;20.70;20.00;;;20.70;63.30;;;;;;5034630;28;20458;-58
2023/01/12 05:06:02;;;;;;;20.63;19.73;;;20.70;63.30;;;;;;5034635;28;20544;-57
2023/01/12 05:11:11;;;;;;;20.50;19.70;;;20.70;63.30;;;;;;5001062;28;20437;-55
2023/01/12 05:13:38;;;;;;;20.90;20.20;;;20.70;63.30;;;;;;5034393;28;20556;-54
2023/01/12 05:16:10;;;;;;;21.67;20.77;;;20.70;63.40;;;;;;5034186;28;20451;-55
2023/01/12 05:18:37;;;;;;;21.30;20.50;;;20.70;63.30;;;;;;5034184;28;20429;-54
2023/01/12 05:21:04;;;;;;;21.17;20.43;;;20.70;63.30;;;;;;5034270;28;20441;-54
2023/01/12 05:23:31;;;;;;;21.27;20.30;;;20.70;63.30;;;;;;5034712;28;20479;-58
2023/01/12 05:25:59;;;;;;;20.80;20.00;;;20.70;63.30;;;;;;5034422;28;20452;-58
2023/01/12 05:28:28;;;;;;;20.53;19.83;;;20.70;63.40;;;;;;5033851;28;20565;-58
2023/01/12 05:30:55;;;;;;;20.67;19.93;;;20.70;63.30;;;;;;5033841;28;20476;-58
2023/01/12 05:33:21;;;;;;;20.80;20.00;;;20.70;63.30;;;;;;5033958;28;20471;-56
2023/01/12 05:35:48;;;;;;;21.53;20.73;;;20.70;63.20;;;;;;5033900;28;21019;-57
2023/01/12 05:38:15;;;;;;;21.90;20.90;;;20.80;63.20;;;;;;5033775;28;20445;-57
2023/01/12 05:40:42;;;;;;;21.23;20.23;;;20.70;63.10;;;;;;5033535;28;20452;-58
2023/01/12 05:46:03;;;;;;;21.17;20.27;;;20.80;63.90;;;;;;5032883;28;20444;-61
2023/01/12 05:48:30;;;;;;;22.50;21.20;;;20.80;64.10;;;;;;5030763;28;20840;-59
2023/01/12 05:51:00;;;;;;;21.93;20.83;;;20.80;64.80;;;;;;5033036;28;20532;-60
2023/01/12 05:53:27;;;;;;;20.83;19.93;;;20.80;65.30;;;;;;5033666;28;20469;-59
2023/01/12 05:55:54;;;;;;;21.20;20.20;;;20.80;65.30;;;;;;5033046;28;20503;-58
2023/01/12 05:58:21;;;;;;;21.90;20.90;;;20.80;65.10;;;;;;5033454;28;20448;-60
2023/01/12 06:00:48;;;;;;;21.73;20.73;;;20.80;64.90;;;;;;5033287;28;20447;-59
2023/01/12 06:03:16;;;;;;;21.93;20.77;;;20.90;64.70;;;;;;5033412;28;20852;-59
2023/01/12 06:05:43;;;;;;;23.03;21.60;;;20.90;64.40;;;;;;5033356;28;21025;-60
2023/01/12 06:08:10;;;;;;;21.80;20.80;;;20.90;64.20;;;;;;5033363;28;20484;-59
2023/01/12 06:10:38;;;;;;;22.20;21.10;;;20.90;64.70;;;;;;5033118;28;20461;-59
2023/01/12 06:15:49;;;;;;;21.70;20.80;;;20.90;63.60;;;;;;5033466;28;20420;-59
2023/01/12 06:18:21;;;;;;;21.93;21.13;;;20.90;63.30;;;;;;5033126;28;20528;-58
2023/01/12 06:20:48;;;;;;;21.67;20.77;;;20.90;63.20;;;;;;5032877;28;20889;-60
2023/01/12 06:23:14;;;;;;;20.80;19.97;;;20.90;63.10;;;;;;5033295;28;20536;-59
2023/01/12 06:25:41;;;;;;;21.37;20.57;;;20.90;63.00;;;;;;5033102;28;20990;-58
2023/01/12 06:28:08;;;;;;;21.00;20.10;;;20.90;62.80;;;;;;5032185;28;20565;-61
2023/01/12 06:30:35;;;;;;;21.50;20.60;;;20.90;62.60;;;;;;5032814;28;20954;-58
2023/01/12 06:33:02;;;;;;;21.87;20.70;;;21.00;62.60;;;;;;5032772;28;20503;-58
2023/01/12 06:35:30;;;;;;;22.53;21.53;;;21.00;62.40;;;;;;5032745;28;20449;-60
2023/01/12 06:37:57;;;;;;;22.30;21.30;;;21.00;62.30;;;;;;5032705;28;20441;-59
2023/01/12 06:40:24;;;;;;;21.47;20.47;;;21.00;62.30;;;;;;5032516;28;20451;-61
2023/01/12 06:42:51;;;;;;;20.87;20.07;;;21.00;62.00;;;;;;5032700;28;20532;-60
2023/01/12 06:45:18;;;;;;;21.30;20.30;;;21.00;61.90;;;;;;5032670;28;20465;-60
2023/01/12 06:47:45;;;;;;;21.97;21.17;;;21.00;61.80;;;;;;5032808;28;20538;-60
2023/01/12 06:50:12;;;;;;;21.67;20.77;;;21.00;61.60;;;;;;5032409;28;20507;-59
2023/01/12 06:52:41;;;;;;;22.57;21.57;;;21.00;61.50;;;;;;5032578;28;20441;-61
2023/01/12 06:55:08;;;;;;;21.80;20.90;;;21.00;61.50;;;;;;5032441;28;20465;-60
2023/01/12 06:57:35;;;;;;;21.13;20.30;;;21.00;61.40;;;;;;5032588;28;20451;-61
2023/01/12 07:00:04;;;;;;;21.40;20.60;;;21.00;61.20;;;;;;5032215;28;20441;-60
2023/01/12 07:02:31;;;;;;;20.97;20.17;;;21.00;61.10;;;;;;5032384;28;20507;-61
2023/01/12 07:04:58;;;;;;;22.70;21.60;;;21.00;61.10;;;;;;5032174;28;20495;-59
2023/01/12 07:07:24;;;;;;;21.70;20.80;;;21.00;60.90;;;;;;5032185;28;20445;-60
2023/01/12 07:09:52;;;;;;;21.80;21.00;;;21.00;60.80;;;;;;5031986;28;20491;-61
2023/01/12 07:12:19;;;;;;;22.00;21.10;;;21.00;60.80;;;;;;5032171;28;21029;-61
2023/01/12 07:14:46;;;;;;;23.03;22.00;;;21.00;60.70;;;;;;5032022;28;20469;-61
2023/01/12 07:17:13;;;;;;;21.10;20.30;;;21.00;60.60;;;;;;5032113;28;20804;-62
2023/01/12 07:19:40;;;;;;;22.00;21.20;;;21.00;60.40;;;;;;5031832;28;20545;-63
2023/01/12 07:22:07;;;;;;;21.67;20.87;;;21.00;60.30;;;;;;5032015;28;20528;-63
2023/01/12 07:24:33;;;;;;;21.93;21.03;;;21.00;60.30;;;;;;5032129;28;20560;-62
2023/01/12 07:27:02;;;;;;;22.30;21.40;;;21.00;60.20;;;;;;5032272;28;20552;-62
2023/01/12 07:29:28;;;;;;;21.87;21.07;;;21.10;60.30;;;;;;5031907;28;20577;-62
2023/01/12 07:31:55;;;;;;;23.60;22.50;;;21.00;60.10;;;;;;5031927;28;20449;-62
2023/01/12 07:34:22;;;;;;;21.53;20.63;;;21.00;60.00;;;;;;5031773;28;20553;-61
2023/01/12 07:36:49;;;;;;;21.53;20.73;;;21.00;60.00;;;;;;5032057;28;20447;-62
2023/01/12 07:39:17;;;;;;;21.33;20.53;;;21.10;60.00;;;;;;5031822;28;20449;-62
2023/01/12 07:44:39;;;;;;;21.90;21.10;;;21.00;59.90;;;;;;5018878;28;20484;-60
2023/01/12 07:47:05;;;;;;;22.53;21.63;;;21.10;59.90;;;;;;5031951;28;20445;-61
2023/01/12 07:49:32;;;;;;;22.13;21.23;;;21.10;59.90;;;;;;5032469;28;20575;-60
2023/01/12 07:51:59;;;;;;;21.97;21.07;;;21.10;59.90;;;;;;5032083;28;20548;-59
2023/01/12 07:54:26;;;;;;;21.30;20.50;;;21.10;59.80;;;;;;5031473;28;20461;-59
2023/01/12 07:56:53;;;;;;;21.90;20.90;;;21.10;59.80;;;;;;5031678;28;20455;-61
2023/01/12 07:59:20;;;;;;;23.00;21.90;;;21.10;59.70;;;;;;5031635;28;20531;-59
2023/01/12 08:01:48;;;;;;;21.97;21.07;;;21.10;60.30;;;;;;5031635;28;20531;-60
2023/01/12 08:04:15;;;;;;;21.37;20.57;;;21.10;59.70;;;;;;5031686;28;20466;-59
2023/01/12 08:06:42;;;;;;;21.67;20.77;;;21.10;59.60;;;;;;5031639;28;20467;-60
2023/01/12 08:09:09;;;;;;;22.77;21.87;;;21.10;59.60;;;;;;5031431;28;20858;-59
2023/01/12 08:11:37;;;;;;;21.77;20.87;;;21.10;59.60;;;;;;5031453;28;20540;-60
2023/01/12 08:14:04;;;;;;;21.90;21.10;;;21.10;59.60;;;;;;5031315;28;20469;-60
2023/01/12 08:16:37;;;;;;;21.70;20.90;;;21.10;59.50;;;;;;5031357;28;20958;-60
2023/01/12 08:19:09;;;;;;;21.33;20.43;;;21.10;59.50;;;;;;5031232;28;20527;-60
2023/01/12 08:21:44;;;;;;;21.00;20.30;;;21.10;59.50;;;;;;5031327;28;20449;-58
2023/01/12 08:24:13;;;;;;;22.70;21.80;;;21.10;59.40;;;;;;5031138;28;20476;-60
2023/01/12 08:26:44;;;;;;;21.60;20.80;;;21.10;59.40;;;;;;5031449;28;20444;-60
2023/01/12 08:29:15;;;;;;;21.67;20.87;;;21.10;59.30;;;;;;5031116;28;20491;-60
2023/01/12 08:31:42;;;;;;;22.10;21.30;;;21.10;59.30;;;;;;5031343;28;20812;-60
2023/01/12 08:34:11;;;;;;;20.90;20.10;;;21.10;59.30;;;;;;5031360;28;20465;-60
2023/01/12 08:36:41;;;;;;;22.03;21.23;;;21.10;59.20;;;;;;5031199;28;20534;-59
2023/01/12 08:39:08;;;;;;;21.60;20.80;;;21.10;59.20;;;;;;5031106;28;20437;-59
2023/01/12 08:41:36;;;;;;;22.33;21.40;;;21.10;59.20;;;;;;5031070;28;20456;-59
2023/01/12 08:44:09;;;;;;;21.60;20.70;;;21.10;59.10;;;;;;5031101;28;20519;-61
2023/01/12 08:46:37;;;;;;;21.63;20.83;;;21.10;59.10;;;;;;5031246;28;20864;-60
2023/01/12 08:49:08;;;;;;;21.97;21.07;;;21.10;59.10;;;;;;5030986;28;20571;-60
2023/01/12 08:51:38;;;;;;;21.30;20.50;;;21.10;59.10;;;;;;5032554;28;20529;-60
2023/01/12 08:54:05;;;;;;;21.10;20.30;;;21.10;59.10;;;;;;5034781;28;20912;-59
2023/01/12 08:56:32;;;;;;;21.23;20.43;;;21.10;59.20;;;;;;5034664;28;20535;-61
2023/01/12 08:59:00;;;;;;;21.30;20.50;;;21.10;59.00;;;;;;5034588;28;20950;-61
2023/01/12 09:01:26;;;;;;;20.67;19.90;;;21.10;59.00;;;;;;5034666;28;20455;-59
2023/01/12 09:03:55;;;;;;;20.83;20.03;;;21.10;59.00;;;;;;5034512;28;20476;-61
2023/01/12 09:06:24;;;;;;;21.43;20.63;;;21.10;58.90;;;;;;5034741;28;20480;-61
2023/01/12 09:08:55;;;;;;;21.90;21.00;;;21.10;58.90;;;;;;5034294;28;20523;-61
2023/01/12 09:11:23;;;;;;;21.20;20.40;;;21.10;58.90;;;;;;5034433;28;20451;-62
2023/01/12 09:13:50;;;;;;;22.20;21.40;;;21.10;58.90;;;;;;5034500;28;20461;-61
2023/01/12 09:16:19;;;;;;;22.60;21.80;;;21.10;58.80;;;;;;5034274;28;20440;-61
2023/01/12 09:18:46;;;;;;;21.90;21.10;;;21.10;58.80;;;;;;5034141;28;20463;-61
2023/01/12 09:21:14;;;;;;;22.27;21.47;;;21.10;58.90;;;;;;5034528;28;20873;-61
2023/01/12 09:23:42;;;;;;;22.50;21.50;;;21.10;58.80;;;;;;5034198;28;20472;-60
2023/01/12 09:26:12;;;;;;;22.90;22.00;;;21.10;58.80;;;;;;5034133;28;20813;-60
2023/01/12 09:28:39;;;;;;;21.90;21.10;;;21.10;58.80;;;;;;5034292;28;20475;-58
2023/01/12 09:31:08;;;;;;;22.23;21.43;;;21.10;58.80;;;;;;5033885;28;20480;-59
2023/01/12 09:33:36;;;;;;;22.10;21.30;;;21.10;58.80;;;;;;5034017;28;20661;-59
2023/01/12 09:36:05;;;;;;;22.20;21.30;;;21.10;58.80;;;;;;5034266;28;20808;-60
2023/01/12 09:38:34;;;;;;;22.03;21.23;;;21.10;58.80;;;;;;5033904;28;20445;-61
2023/01/12 09:41:03;;;;;;;22.20;21.40;;;21.10;58.80;;;;;;5033908;28;20525;-60
2023/01/12 09:49:12;;;;;;;22.50;21.70;;;21.10;58.70;;;;;;5033846;28;20472;-62
2023/01/12 09:51:46;;;;;;;22.60;21.80;;;21.10;58.70;;;;;;5033612;28;20456;-62
2023/01/12 09:54:13;;;;;;;22.17;21.13;;;21.10;58.70;;;;;;5033495;28;20492;-62
2023/01/12 09:56:50;;;;;;;22.63;21.83;;;21.10;58.80;;;;;;5033661;28;20855;-61
2023/01/12 09:59:40;;;;;;;22.00;21.20;;;21.10;58.70;;;;;;5033683;28;20437;-60
2023/01/12 10:02:11;;;;;;;22.07;21.27;;;21.10;58.70;;;;;;5033253;28;20558;-61
2023/01/12 10:04:38;;;;;;;22.60;21.80;;;21.10;58.70;;;;;;5032898;28;20530;-63
2023/01/12 10:07:06;;;;;;;22.00;21.10;;;21.10;58.70;;;;;;5033486;28;20817;-62
2023/01/12 10:09:36;;;;;;;21.80;21.00;;;21.10;58.70;;;;;;5033150;28;20512;-61
2023/01/12 10:12:12;;;;;;;21.70;20.90;;;21.10;58.70;;;;;;5033296;28;20882;-57
2023/01/12 10:14:54;;;;;;;21.93;21.13;;;21.10;58.60;;;;;;5033206;28;20464;-63
2023/01/12 10:17:31;;;;;;;21.93;21.10;;;21.10;58.60;;;;;;5033295;28;20472;-58
2023/01/12 10:20:06;;;;;;;21.70;20.90;;;21.10;58.60;;;;;;5032910;28;20464;-61
2023/01/12 10:22:38;;;;;;;21.77;20.97;;;21.10;58.70;;;;;;5033523;28;20440;-59
2023/01/12 10:25:22;;;;;;;22.03;21.23;;;21.10;58.70;;;;;;5032929;28;20483;-59
2023/01/12 10:27:50;;;;;;;21.93;21.13;;;21.10;58.60;;;;;;5032999;28;20440;-61
2023/01/12 10:30:25;;;;;;;21.57;20.57;;;21.10;58.70;;;;;;5032780;28;20491;-58
2023/01/12 10:32:52;;;;;;;21.80;21.00;;;21.10;58.70;;;;;;5032936;28;20450;-58
2023/01/12 10:35:21;;;;;;;22.20;21.40;;;21.10;58.70;;;;;;5032908;28;21052;-60
2023/01/12 10:37:50;;;;;;;21.80;20.93;;;21.10;58.70;;;;;;5033037;28;20444;-56
2023/01/12 10:40:28;;;;;;;21.70;20.90;;;21.10;58.70;;;;;;5032567;28;20552;-59
2023/01/12 10:43:22;;;;;;;21.60;20.80;;;21.10;58.70;;;;;;5032843;28;20445;-59
2023/01/12 10:46:15;;;;;;;21.43;20.63;;;21.10;58.70;;;;;;5032729;28;20821;-60
2023/01/12 10:48:44;;;;;;;21.80;21.00;;;21.10;58.60;;;;;;5027949;28;20532;-62
2023/01/12 10:51:23;;;;;;;21.80;21.00;;;21.10;58.70;;;;;;5032479;28;20485;-61
2023/01/12 10:53:54;;;;;;;21.53;20.73;;;21.10;58.70;;;;;;5032481;28;20544;-60
2023/01/12 10:56:26;;;;;;;21.77;20.90;;;21.10;58.70;;;;;;5032506;28;20451;-60
2023/01/12 10:58:55;;;;;;;22.20;21.40;;;21.10;58.70;;;;;;5032392;28;20688;-61
2023/01/12 11:01:24;;;;;;;22.00;21.20;;;21.10;58.70;;;;;;5032397;28;20944;-60
2023/01/12 11:03:51;;;;;;;21.57;20.60;;;21.10;58.70;;;;;;5032291;28;20468;-61
2023/01/12 11:06:27;;;;;;;21.70;20.90;;;21.10;58.70;;;;;;5032282;28;20471;-62
2023/01/12 11:08:55;;;;;;;22.07;21.17;;;21.20;58.70;;;;;;5032072;28;20871;-59
2023/01/12 11:11:27;;;;;;;22.17;21.27;;;21.20;58.70;;;;;;5032116;28;20587;-59
2023/01/12 11:13:56;;;;;;;21.73;20.93;;;21.10;58.70;;;;;;5031882;28;20556;-61
2023/01/12 11:16:27;;;;;;;21.93;21.13;;;21.20;58.80;;;;;;5032261;28;20475;-60
2023/01/12 11:19:13;;;;;;;21.80;20.90;;;21.20;59.30;;;;;;5032014;28;20445;-60
2023/01/12 11:21:44;;;;;;;21.60;20.80;;;21.20;58.80;;;;;;5031931;28;20448;-62
2023/01/12 11:24:20;;;;;;;22.33;21.33;;;21.20;58.80;;;;;;5067341;22;20557;-57
2023/01/12 11:26:52;;;;;;;22.90;22.00;;;21.10;58.70;;;;;;5075184;28;20443;-53
2023/01/12 11:29:34;;;;;;;22.30;21.50;;;21.10;58.70;;;;;;5075375;28;20475;-52
2023/01/12 11:32:07;;;;;;;22.10;21.30;;;21.10;58.70;;;;;;5075468;28;20939;-51
2023/01/12 11:34:38;;;;;;;21.40;20.60;;;21.20;58.80;;;;;;5085214;28;20463;-52
2023/01/12 11:37:11;;;;;;;21.77;20.97;;;21.10;58.70;;;;;;5095331;28;20442;-54
2023/01/12 11:39:40;;;;;;;21.90;21.10;;;21.10;58.70;;;;;;5095626;28;20450;-51
2023/01/12 11:45:03;;;;;;;21.60;20.80;;;21.20;58.80;;;;;;5095328;28;20434;-52
2023/01/12 11:47:35;;;;;;;22.00;21.20;;;21.20;58.80;;;;;;5095116;28;20442;-52
2023/01/12 11:50:06;;;;;;;21.90;21.00;;;21.20;58.80;;;;;;5095248;28;20842;-54
2023/01/12 11:52:34;;;;;;;21.70;20.90;;;21.20;58.80;;;;;;5095068;28;20438;-52
2023/01/12 11:55:01;;;;;;;21.37;20.57;;;21.20;58.80;;;;;;5095322;28;20461;-51
2023/01/12 11:57:41;;;;;;;22.07;21.20;;;21.10;58.70;;;;;;5095855;28;20441;-52
2023/01/12 12:00:38;;;;;;;21.37;20.57;;;21.10;58.70;;;;;;5095091;28;20473;-51
2023/01/12 12:03:27;;;;;;;21.33;20.53;;;21.20;58.80;;;;;;5094733;28;20783;-54
2023/01/12 12:06:03;;;;;;;21.77;20.97;;;21.20;58.80;;;;;;5094269;28;20438;-53
2023/01/12 12:08:43;;;;;;;21.37;20.47;;;21.20;58.80;;;;;;5094490;28;20485;-53
2023/01/12 12:11:18;;;;;;;21.70;20.90;;;21.20;58.80;;;;;;5094258;28;21028;-51
2023/01/12 12:13:55;;;;;;;21.53;20.73;;;21.20;58.80;;;;;;5093761;28;20524;-51
2023/01/12 12:16:31;;;;;;;21.40;20.60;;;21.20;58.80;;;;;;5094611;28;20441;-55
2023/01/12 12:19:13;;;;;;;21.20;20.40;;;21.20;58.80;;;;;;5093104;28;20528;-56
2023/01/12 12:21:47;;;;;;;21.70;20.90;;;21.20;58.80;;;;;;5093486;28;20529;-57
2023/01/12 12:24:35;;;;;;;22.37;21.47;;;21.10;58.70;;;;;;5092910;28;20527;-55
2023/01/12 12:27:13;;;;;;;21.80;21.00;;;21.10;58.80;;;;;;5095142;28;20464;-53
2023/01/12 12:30:01;;;;;;;21.90;20.97;;;21.10;58.80;;;;;;5097226;28;20492;-57
2023/01/12 12:32:36;;;;;;;21.10;20.30;;;21.10;58.80;;;;;;5097236;28;20453;-55
2023/01/12 12:35:28;;;;;;;21.87;21.07;;;21.10;58.80;;;;;;5097673;28;20466;-56
2023/01/12 12:38:05;;;;;;;21.23;20.43;;;21.10;58.80;;;;;;5080768;28;20461;-57
2023/01/12 12:46:20;;;;;;;21.50;20.70;;;21.10;58.80;;;;;;5095409;28;20429;-53
2023/01/12 12:48:57;;;;;;;21.73;20.93;;;21.10;58.90;;;;;;5095166;28;20793;-54
2023/01/12 12:51:26;;;;;;;21.70;20.90;;;21.10;58.90;;;;;;5094955;28;20481;-53
2023/01/12 12:53:54;;;;;;;21.67;20.87;;;21.10;58.90;;;;;;5094960;28;20470;-53
2023/01/12 12:56:23;;;;;;;22.53;21.63;;;21.10;58.90;;;;;;5094780;28;20472;-50
2023/01/12 12:58:52;;;;;;;21.87;21.07;;;21.10;58.90;;;;;;5094595;28;20457;-53
2023/01/12 13:01:54;;;;;;;22.00;21.20;;;21.10;59.00;;;;;;5094864;28;20435;-52
2023/01/12 13:05:00;;;;;;;22.33;21.53;;;21.10;59.00;;;;;;5094603;28;20464;-53
2023/01/12 13:07:28;;;;;;;21.77;20.97;;;21.10;59.00;;;;;;5091271;28;20533;-53
2023/01/12 13:10:15;;;;;;;21.50;20.70;;;21.10;59.00;;;;;;5094334;28;20500;-51
2023/01/12 13:12:43;;;;;;;21.77;20.97;;;21.10;59.10;;;;;;5080963;28;20453;-50
2023/01/12 13:15:36;;;;;;;21.90;21.10;;;21.10;59.00;;;;;;5094481;28;20461;-50
2023/01/12 13:18:05;;;;;;;21.50;20.70;;;21.10;59.10;;;;;;5094647;28;20461;-53
2023/01/12 13:20:58;;;;;;;21.63;20.83;;;21.10;59.10;;;;;;5094253;28;20481;-52
2023/01/12 13:24:21;;;;;;;21.53;20.73;;;21.10;59.10;;;;;;5094386;28;20842;-51
2023/01/12 13:26:51;;;;;;;21.90;21.10;;;21.10;59.10;;;;;;5094314;28;20450;-52
2023/01/12 13:29:51;;;;;;;22.73;21.83;;;21.20;59.10;;;;;;5094196;28;20450;-54
2023/01/12 13:32:57;;;;;;;22.10;21.20;;;21.10;59.10;;;;;;5094124;28;20489;-50